Details From LJLJ - Ljubljana
To LXGB - Gibraltar
Flight Number -
Tags Generated
Created
Modified
Stats Distance 1,086 nm / 2,011 km
Max Altitude 0 ft / 0 m
Waypoints 6
Social Downloads 0
Likes 0
Share VATSIM

Download

Looking for another format? Having issues loading an existing format? Contact us
Advertisement - Login to hide

Notes

Generated

Route

LJLJ TIGLO AGENA ASTRO BRIKE LXGB

ID Type Via Altitude Latitude Longitude Leg Dist Tot Dist Heading (true) Name
O LJLJ APT - 0 ft / 0 m 46.23249˚ 14.44039˚ - 0 nm - -
TIGLO FIX - 0 ft / 0 m 44.29278˚ 9.38667˚ 243 nm 243 nm 243° / 240° -
AGENA FIX - 0 ft / 0 m 41.54482˚ 3.48861˚ 307 nm 550 nm 240° / 236° -
ASTRO FIX - 0 ft / 0 m 39.02438˚ -1.26300˚ 265 nm 815 nm 237° / 234° -
BRIKE FIX - 0 ft / 0 m 36.50478˚ -5.41645˚ 248 nm 1064 nm 234° / 231° -
O LXGB APT - 0 ft / 0 m 36.15080˚ -5.35977˚ 21 nm 1085 nm 173° / 173° -

Altitude Profile

Advertisement - Login to hide

Weather


0- 5 10 15 20 25 30 35+ Temperature / ° C

Clouds and Precipitation
Forecast for 2018-05-25 12:00 UTC. Updated 7 minutes ago

Ground ~20,000 ft ~40,000 ft Winds

LJLJ

Details ICAO LJLJ (LJU)
Name LJUBLJANA
Region Slovenia
Timezone Europe/Ljubljana (UTC+2.0)
Stats Elevation 1,273 ft / 388 m (AMSL)
Location 46.223685° 14.457608°
Runways 1
Magnetic Variation 3.712° E

METAR

LJLJ 250900Z 06002KT 9999 FEW043 23/15 Q1017 NOSIG

Decode

TAF

TAF LJLJ 250800Z 2509/2609 12005KT 9999 FEW050 TEMPO 2510/2520 SHRA SCT035TCU BKN050 PROB40 TEMPO 2511/2518 VRB10G20KT 5000 TSRA SCT030CB BKN050 BECMG 2519/2522 29003KT PROB30 TEMPO 2602/2607 0800 FG VV001

Decode

Departure Runways

ID Width Length Bearing (true) Bearing (mag) Surface Threshold Offset Overrun Length
13 148 ft / 45 m 10,811 ft / 3,295 m 126.47° 122.76° Asphalt 0 ft / 0 m 0 ft / 0 m
31 148 ft / 45 m 10,811 ft / 3,295 m 306.49° 302.78° Asphalt 0 ft / 0 m 0 ft / 0 m

LXGB

Details ICAO LXGB (GIB)
Name Gibraltar
Region Gibralter
Timezone Europe/Gibraltar (UTC+2.0)
Stats Elevation 15 ft / 5 m (AMSL)
Location 36.151209° -5.349664°
Runways 1
Magnetic Variation 1.072° W

METAR

LXGB 250850Z 22008KT 9999 FEW024 SCT035 20/13 Q1014 TEMPO SCT024

Decode

TAF

Not found

Destination Runways

ID Width Length Bearing (true) Bearing (mag) Surface Threshold Offset Overrun Length
27 151 ft / 46 m 5,992 ft / 1,826 m 267.56° 268.63° Asphalt 367 ft / 112 m 89 ft / 27 m
9 151 ft / 46 m 5,992 ft / 1,826 m 87.54° 88.61° Asphalt 299 ft / 91 m 52 ft / 16 m

Popular Alternatives